sensor_id;sensor_type;location;lat;lon;timestamp;P1;durP1;ratioP1;P2;durP2;ratioP2
26981;SDS011;14533;50.848;4.380;2022-07-29T00:01:26;8.07;;;2.80;;
26981;SDS011;14533;50.848;4.380;2022-07-29T00:03:51;5.35;;;2.22;;
26981;SDS011;14533;50.848;4.380;2022-07-29T00:06:17;5.88;;;2.45;;
26981;SDS011;14533;50.848;4.380;2022-07-29T00:08:42;8.38;;;3.50;;
26981;SDS011;14533;50.848;4.380;2022-07-29T00:11:08;8.77;;;2.60;;
26981;SDS011;14533;50.848;4.380;2022-07-29T00:13:34;9.32;;;2.67;;
26981;SDS011;14533;50.848;4.380;2022-07-29T00:15:59;4.60;;;1.95;;
26981;SDS011;14533;50.848;4.380;2022-07-29T00:18:25;8.35;;;2.28;;
26981;SDS011;14533;50.848;4.380;2022-07-29T00:20:51;5.38;;;2.20;;
26981;SDS011;14533;50.848;4.380;2022-07-29T00:23:16;8.27;;;3.10;;
26981;SDS011;14533;50.848;4.380;2022-07-29T00:25:42;6.57;;;2.55;;
26981;SDS011;14533;50.848;4.380;2022-07-29T00:28:07;8.45;;;2.22;;
26981;SDS011;14533;50.848;4.380;2022-07-29T00:30:33;5.70;;;2.72;;
26981;SDS011;14533;50.848;4.380;2022-07-29T00:32:58;5.53;;;2.03;;
26981;SDS011;14533;50.848;4.380;2022-07-29T00:35:24;6.78;;;2.70;;
26981;SDS011;14533;50.848;4.380;2022-07-29T00:38:08;3.58;;;2.00;;
26981;SDS011;14533;50.848;4.380;2022-07-29T00:40:34;9.77;;;2.25;;
26981;SDS011;14533;50.848;4.380;2022-07-29T00:43:00;7.88;;;2.70;;
26981;SDS011;14533;50.848;4.380;2022-07-29T00:45:26;10.90;;;2.20;;
26981;SDS011;14533;50.848;4.380;2022-07-29T00:47:52;6.15;;;2.35;;
26981;SDS011;14533;50.848;4.380;2022-07-29T00:50:18;4.47;;;2.10;;
26981;SDS011;14533;50.848;4.380;2022-07-29T00:52:43;6.10;;;2.05;;
26981;SDS011;14533;50.848;4.380;2022-07-29T00:55:12;6.25;;;2.42;;
26981;SDS011;14533;50.848;4.380;2022-07-29T00:57:41;6.30;;;2.20;;
26981;SDS011;14533;50.848;4.380;2022-07-29T01:00:08;4.10;;;2.42;;
26981;SDS011;14533;50.848;4.380;2022-07-29T01:02:36;8.90;;;2.28;;
26981;SDS011;14533;50.848;4.380;2022-07-29T01:05:02;3.85;;;2.17;;
26981;SDS011;14533;50.848;4.380;2022-07-29T01:07:30;7.75;;;2.60;;
26981;SDS011;14533;50.848;4.380;2022-07-29T01:09:58;5.53;;;2.40;;
26981;SDS011;14533;50.848;4.380;2022-07-29T01:12:25;6.13;;;1.92;;
26981;SDS011;14533;50.848;4.380;2022-07-29T01:14:52;10.77;;;2.67;;
26981;SDS011;14533;50.848;4.380;2022-07-29T01:17:54;7.25;;;2.60;;
26981;SDS011;14533;50.848;4.380;2022-07-29T01:20:16;5.88;;;2.30;;
26981;SDS011;14533;50.848;4.380;2022-07-29T01:23:01;4.55;;;1.75;;
26981;SDS011;14533;50.848;4.380;2022-07-29T01:25:45;3.65;;;2.10;;
26981;SDS011;14533;50.848;4.380;2022-07-29T01:30:57;5.63;;;2.17;;
26981;SDS011;14533;50.848;4.380;2022-07-29T01:33:25;7.03;;;2.38;;
26981;SDS011;14533;50.848;4.380;2022-07-29T01:36:11;7.95;;;2.45;;
26981;SDS011;14533;50.848;4.380;2022-07-29T01:38:41;5.18;;;2.15;;
26981;SDS011;14533;50.848;4.380;2022-07-29T01:41:09;6.20;;;2.17;;
26981;SDS011;14533;50.848;4.380;2022-07-29T01:43:47;6.50;;;2.40;;
26981;SDS011;14533;50.848;4.380;2022-07-29T01:46:22;11.27;;;2.63;;
26981;SDS011;14533;50.848;4.380;2022-07-29T01:49:02;4.60;;;2.20;;
26981;SDS011;14533;50.848;4.380;2022-07-29T01:51:38;5.05;;;2.00;;
26981;SDS011;14533;50.848;4.380;2022-07-29T01:54:16;5.20;;;2.30;;
26981;SDS011;14533;50.848;4.380;2022-07-29T01:56:44;10.00;;;2.40;;
26981;SDS011;14533;50.848;4.380;2022-07-29T01:59:11;7.25;;;2.15;;
26981;SDS011;14533;50.848;4.380;2022-07-29T02:01:37;5.75;;;2.88;;
26981;SDS011;14533;50.848;4.380;2022-07-29T02:04:06;8.02;;;2.00;;
26981;SDS011;14533;50.848;4.380;2022-07-29T02:06:34;4.95;;;2.25;;
26981;SDS011;14533;50.848;4.380;2022-07-29T02:09:03;5.63;;;2.38;;
26981;SDS011;14533;50.848;4.380;2022-07-29T02:11:31;8.57;;;2.03;;
26981;SDS011;14533;50.848;4.380;2022-07-29T02:14:00;4.18;;;2.40;;
26981;SDS011;14533;50.848;4.380;2022-07-29T02:16:28;5.93;;;2.50;;
26981;SDS011;14533;50.848;4.380;2022-07-29T02:18:56;5.22;;;2.05;;
26981;SDS011;14533;50.848;4.380;2022-07-29T02:21:25;7.97;;;2.55;;
26981;SDS011;14533;50.848;4.380;2022-07-29T02:23:53;8.30;;;2.50;;
26981;SDS011;14533;50.848;4.380;2022-07-29T02:26:21;3.88;;;2.15;;
26981;SDS011;14533;50.848;4.380;2022-07-29T02:28:49;5.50;;;2.25;;
26981;SDS011;14533;50.848;4.380;2022-07-29T02:31:19;6.57;;;2.47;;
26981;SDS011;14533;50.848;4.380;2022-07-29T02:33:48;9.18;;;2.42;;
26981;SDS011;14533;50.848;4.380;2022-07-29T02:36:14;8.32;;;2.58;;
26981;SDS011;14533;50.848;4.380;2022-07-29T02:38:40;4.05;;;2.20;;
26981;SDS011;14533;50.848;4.380;2022-07-29T02:41:22;7.55;;;1.98;;
26981;SDS011;14533;50.848;4.380;2022-07-29T02:43:53;10.68;;;2.95;;
26981;SDS011;14533;50.848;4.380;2022-07-29T02:46:27;7.15;;;2.40;;
26981;SDS011;14533;50.848;4.380;2022-07-29T02:48:58;5.25;;;2.10;;
26981;SDS011;14533;50.848;4.380;2022-07-29T02:57:04;8.73;;;2.50;;
26981;SDS011;14533;50.848;4.380;2022-07-29T02:59:34;7.65;;;2.30;;
26981;SDS011;14533;50.848;4.380;2022-07-29T03:02:06;5.80;;;2.28;;
26981;SDS011;14533;50.848;4.380;2022-07-29T03:04:33;7.70;;;2.47;;
26981;SDS011;14533;50.848;4.380;2022-07-29T03:07:00;6.13;;;2.10;;
26981;SDS011;14533;50.848;4.380;2022-07-29T03:09:27;4.82;;;2.50;;
26981;SDS011;14533;50.848;4.380;2022-07-29T03:11:53;7.88;;;2.83;;
26981;SDS011;14533;50.848;4.380;2022-07-29T03:14:20;5.22;;;2.10;;
26981;SDS011;14533;50.848;4.380;2022-07-29T03:16:47;7.72;;;2.80;;
26981;SDS011;14533;50.848;4.380;2022-07-29T03:19:14;5.85;;;2.38;;
26981;SDS011;14533;50.848;4.380;2022-07-29T03:21:39;10.40;;;2.63;;
26981;SDS011;14533;50.848;4.380;2022-07-29T03:24:05;6.70;;;2.88;;
26981;SDS011;14533;50.848;4.380;2022-07-29T03:26:31;14.95;;;3.10;;
26981;SDS011;14533;50.848;4.380;2022-07-29T03:28:57;8.77;;;2.92;;
26981;SDS011;14533;50.848;4.380;2022-07-29T03:31:22;8.40;;;2.75;;
26981;SDS011;14533;50.848;4.380;2022-07-29T03:33:48;7.85;;;2.55;;
26981;SDS011;14533;50.848;4.380;2022-07-29T03:36:14;6.28;;;2.60;;
26981;SDS011;14533;50.848;4.380;2022-07-29T03:38:40;8.95;;;2.58;;
26981;SDS011;14533;50.848;4.380;2022-07-29T03:41:09;13.30;;;2.65;;
26981;SDS011;14533;50.848;4.380;2022-07-29T03:43:37;7.10;;;3.10;;
26981;SDS011;14533;50.848;4.380;2022-07-29T03:46:06;7.50;;;2.92;;
26981;SDS011;14533;50.848;4.380;2022-07-29T03:48:34;11.60;;;2.70;;
26981;SDS011;14533;50.848;4.380;2022-07-29T03:51:03;15.07;;;3.10;;
26981;SDS011;14533;50.848;4.380;2022-07-29T03:53:28;13.27;;;3.20;;
26981;SDS011;14533;50.848;4.380;2022-07-29T03:55:54;10.35;;;2.78;;
26981;SDS011;14533;50.848;4.380;2022-07-29T03:58:24;9.18;;;2.92;;
26981;SDS011;14533;50.848;4.380;2022-07-29T04:00:52;8.35;;;2.97;;
26981;SDS011;14533;50.848;4.380;2022-07-29T04:03:20;14.50;;;3.70;;
26981;SDS011;14533;50.848;4.380;2022-07-29T04:05:57;8.07;;;2.67;;
26981;SDS011;14533;50.848;4.380;2022-07-29T04:08:25;6.05;;;3.13;;
26981;SDS011;14533;50.848;4.380;2022-07-29T04:10:51;9.32;;;3.55;;
26981;SDS011;14533;50.848;4.380;2022-07-29T04:13:17;10.52;;;2.92;;
26981;SDS011;14533;50.848;4.380;2022-07-29T04:15:44;9.07;;;3.85;;
26981;SDS011;14533;50.848;4.380;2022-07-29T04:18:09;8.88;;;3.30;;
26981;SDS011;14533;50.848;4.380;2022-07-29T04:20:35;5.90;;;3.20;;
26981;SDS011;14533;50.848;4.380;2022-07-29T04:23:00;10.57;;;3.05;;
26981;SDS011;14533;50.848;4.380;2022-07-29T04:25:26;9.80;;;3.13;;
26981;SDS011;14533;50.848;4.380;2022-07-29T04:27:51;9.63;;;3.95;;
26981;SDS011;14533;50.848;4.380;2022-07-29T04:30:26;11.98;;;3.40;;
26981;SDS011;14533;50.848;4.380;2022-07-29T04:32:52;14.07;;;7.20;;
26981;SDS011;14533;50.848;4.380;2022-07-29T04:35:18;14.25;;;5.00;;
26981;SDS011;14533;50.848;4.380;2022-07-29T04:37:44;10.90;;;4.50;;
26981;SDS011;14533;50.848;4.380;2022-07-29T04:40:10;11.38;;;4.88;;
26981;SDS011;14533;50.848;4.380;2022-07-29T04:42:36;11.32;;;3.97;;
26981;SDS011;14533;50.848;4.380;2022-07-29T04:45:02;8.23;;;3.67;;
26981;SDS011;14533;50.848;4.380;2022-07-29T04:47:28;10.20;;;4.22;;
26981;SDS011;14533;50.848;4.380;2022-07-29T04:49:54;8.27;;;3.60;;
26981;SDS011;14533;50.848;4.380;2022-07-29T04:52:21;5.38;;;3.72;;
26981;SDS011;14533;50.848;4.380;2022-07-29T04:54:47;17.70;;;4.80;;
26981;SDS011;14533;50.848;4.380;2022-07-29T04:57:12;12.73;;;4.13;;
26981;SDS011;14533;50.848;4.380;2022-07-29T04:59:38;13.75;;;3.90;;
26981;SDS011;14533;50.848;4.380;2022-07-29T05:02:04;13.57;;;4.68;;
26981;SDS011;14533;50.848;4.380;2022-07-29T05:04:29;6.15;;;3.67;;
26981;SDS011;14533;50.848;4.380;2022-07-29T05:06:55;16.52;;;4.47;;
26981;SDS011;14533;50.848;4.380;2022-07-29T05:09:20;13.18;;;4.18;;
26981;SDS011;14533;50.848;4.380;2022-07-29T05:11:46;14.68;;;4.55;;
26981;SDS011;14533;50.848;4.380;2022-07-29T05:14:12;9.18;;;4.47;;
26981;SDS011;14533;50.848;4.380;2022-07-29T05:16:37;16.70;;;4.20;;
26981;SDS011;14533;50.848;4.380;2022-07-29T05:19:05;9.50;;;4.25;;
26981;SDS011;14533;50.848;4.380;2022-07-29T05:21:30;11.63;;;4.07;;
26981;SDS011;14533;50.848;4.380;2022-07-29T05:23:56;9.93;;;4.88;;
26981;SDS011;14533;50.848;4.380;2022-07-29T05:26:22;10.35;;;4.18;;
26981;SDS011;14533;50.848;4.380;2022-07-29T05:28:47;11.57;;;4.10;;
26981;SDS011;14533;50.848;4.380;2022-07-29T05:31:13;11.15;;;4.35;;
26981;SDS011;14533;50.848;4.380;2022-07-29T05:33:39;9.75;;;4.28;;
26981;SDS011;14533;50.848;4.380;2022-07-29T05:36:06;17.55;;;7.10;;
26981;SDS011;14533;50.848;4.380;2022-07-29T05:38:32;11.38;;;3.92;;
26981;SDS011;14533;50.848;4.380;2022-07-29T05:41:01;14.43;;;3.78;;
26981;SDS011;14533;50.848;4.380;2022-07-29T05:43:28;10.45;;;4.28;;
26981;SDS011;14533;50.848;4.380;2022-07-29T05:45:54;13.93;;;4.93;;
26981;SDS011;14533;50.848;4.380;2022-07-29T05:48:20;12.13;;;4.10;;
26981;SDS011;14533;50.848;4.380;2022-07-29T05:50:46;14.57;;;5.40;;
26981;SDS011;14533;50.848;4.380;2022-07-29T05:53:11;11.15;;;4.18;;
26981;SDS011;14533;50.848;4.380;2022-07-29T05:55:37;12.20;;;4.15;;
26981;SDS011;14533;50.848;4.380;2022-07-29T05:58:02;9.82;;;4.18;;
26981;SDS011;14533;50.848;4.380;2022-07-29T06:00:28;7.32;;;4.00;;
26981;SDS011;14533;50.848;4.380;2022-07-29T06:02:55;10.75;;;3.70;;
26981;SDS011;14533;50.848;4.380;2022-07-29T06:05:21;5.78;;;3.70;;
26981;SDS011;14533;50.848;4.380;2022-07-29T06:07:47;8.02;;;3.75;;
26981;SDS011;14533;50.848;4.380;2022-07-29T06:10:13;9.27;;;3.60;;
26981;SDS011;14533;50.848;4.380;2022-07-29T06:12:38;12.70;;;3.45;;
26981;SDS011;14533;50.848;4.380;2022-07-29T06:15:04;23.40;;;5.15;;
26981;SDS011;14533;50.848;4.380;2022-07-29T06:17:31;13.95;;;3.92;;
26981;SDS011;14533;50.848;4.380;2022-07-29T06:19:56;6.97;;;3.70;;
26981;SDS011;14533;50.848;4.380;2022-07-29T06:22:22;12.80;;;3.20;;
26981;SDS011;14533;50.848;4.380;2022-07-29T06:24:48;8.50;;;3.30;;
26981;SDS011;14533;50.848;4.380;2022-07-29T06:27:14;10.27;;;3.95;;
26981;SDS011;14533;50.848;4.380;2022-07-29T06:29:41;11.73;;;3.22;;
26981;SDS011;14533;50.848;4.380;2022-07-29T06:32:07;6.35;;;3.17;;
26981;SDS011;14533;50.848;4.380;2022-07-29T06:34:34;7.00;;;3.55;;
26981;SDS011;14533;50.848;4.380;2022-07-29T06:37:00;7.05;;;3.50;;
26981;SDS011;14533;50.848;4.380;2022-07-29T06:39:30;10.52;;;3.30;;
26981;SDS011;14533;50.848;4.380;2022-07-29T06:41:56;6.13;;;3.50;;
26981;SDS011;14533;50.848;4.380;2022-07-29T06:44:21;6.10;;;3.47;;
26981;SDS011;14533;50.848;4.380;2022-07-29T06:46:47;5.35;;;3.40;;
26981;SDS011;14533;50.848;4.380;2022-07-29T06:49:15;4.45;;;3.42;;
26981;SDS011;14533;50.848;4.380;2022-07-29T06:51:40;7.88;;;3.70;;
26981;SDS011;14533;50.848;4.380;2022-07-29T06:54:06;10.05;;;3.53;;
26981;SDS011;14533;50.848;4.380;2022-07-29T06:56:32;6.95;;;3.75;;
26981;SDS011;14533;50.848;4.380;2022-07-29T06:59:01;7.72;;;3.65;;
26981;SDS011;14533;50.848;4.380;2022-07-29T07:01:27;5.50;;;3.28;;
26981;SDS011;14533;50.848;4.380;2022-07-29T07:03:53;10.65;;;3.97;;
26981;SDS011;14533;50.848;4.380;2022-07-29T07:06:18;9.38;;;4.43;;
26981;SDS011;14533;50.848;4.380;2022-07-29T07:08:44;11.98;;;3.95;;
26981;SDS011;14533;50.848;4.380;2022-07-29T07:11:09;8.48;;;3.88;;
26981;SDS011;14533;50.848;4.380;2022-07-29T07:13:35;13.05;;;3.90;;
26981;SDS011;14533;50.848;4.380;2022-07-29T07:16:01;8.50;;;4.13;;
26981;SDS011;14533;50.848;4.380;2022-07-29T07:18:27;10.18;;;4.25;;
26981;SDS011;14533;50.848;4.380;2022-07-29T07:20:53;7.30;;;4.10;;
26981;SDS011;14533;50.848;4.380;2022-07-29T07:23:18;11.77;;;4.70;;
26981;SDS011;14533;50.848;4.380;2022-07-29T07:25:44;14.82;;;4.20;;
26981;SDS011;14533;50.848;4.380;2022-07-29T07:28:10;13.13;;;4.10;;
26981;SDS011;14533;50.848;4.380;2022-07-29T07:30:35;10.93;;;4.72;;
26981;SDS011;14533;50.848;4.380;2022-07-29T07:33:01;15.68;;;4.55;;
26981;SDS011;14533;50.848;4.380;2022-07-29T07:35:27;6.05;;;4.25;;
26981;SDS011;14533;50.848;4.380;2022-07-29T07:37:54;9.77;;;4.20;;
26981;SDS011;14533;50.848;4.380;2022-07-29T07:40:20;11.50;;;4.38;;
26981;SDS011;14533;50.848;4.380;2022-07-29T07:42:46;9.55;;;4.13;;
26981;SDS011;14533;50.848;4.380;2022-07-29T07:45:11;7.70;;;4.20;;
26981;SDS011;14533;50.848;4.380;2022-07-29T07:47:39;13.30;;;6.53;;
26981;SDS011;14533;50.848;4.380;2022-07-29T07:50:05;13.75;;;5.05;;
26981;SDS011;14533;50.848;4.380;2022-07-29T07:52:33;17.15;;;5.43;;
26981;SDS011;14533;50.848;4.380;2022-07-29T07:54:59;8.20;;;4.60;;
26981;SDS011;14533;50.848;4.380;2022-07-29T07:57:25;11.82;;;4.50;;
26981;SDS011;14533;50.848;4.380;2022-07-29T07:59:51;8.93;;;3.88;;
26981;SDS011;14533;50.848;4.380;2022-07-29T08:02:17;12.20;;;4.18;;
26981;SDS011;14533;50.848;4.380;2022-07-29T08:04:42;9.35;;;4.20;;
26981;SDS011;14533;50.848;4.380;2022-07-29T08:07:08;9.38;;;3.90;;
26981;SDS011;14533;50.848;4.380;2022-07-29T08:09:34;15.10;;;4.05;;
26981;SDS011;14533;50.848;4.380;2022-07-29T08:12:00;10.05;;;3.65;;
26981;SDS011;14533;50.848;4.380;2022-07-29T08:14:28;7.00;;;3.38;;
26981;SDS011;14533;50.848;4.380;2022-07-29T08:16:55;8.00;;;3.88;;
26981;SDS011;14533;50.848;4.380;2022-07-29T08:19:20;6.55;;;3.50;;
26981;SDS011;14533;50.848;4.380;2022-07-29T08:21:46;4.13;;;3.40;;
26981;SDS011;14533;50.848;4.380;2022-07-29T08:24:11;8.02;;;3.10;;
26981;SDS011;14533;50.848;4.380;2022-07-29T08:26:55;7.18;;;3.42;;
26981;SDS011;14533;50.848;4.380;2022-07-29T08:29:21;10.18;;;3.40;;
26981;SDS011;14533;50.848;4.380;2022-07-29T08:31:47;6.05;;;3.20;;
26981;SDS011;14533;50.848;4.380;2022-07-29T08:34:12;7.65;;;3.30;;
26981;SDS011;14533;50.848;4.380;2022-07-29T08:36:38;15.45;;;3.40;;
26981;SDS011;14533;50.848;4.380;2022-07-29T08:39:04;9.80;;;4.00;;
26981;SDS011;14533;50.848;4.380;2022-07-29T08:41:30;8.05;;;3.00;;
26981;SDS011;14533;50.848;4.380;2022-07-29T08:43:56;5.10;;;3.00;;
26981;SDS011;14533;50.848;4.380;2022-07-29T08:46:22;9.15;;;3.10;;
26981;SDS011;14533;50.848;4.380;2022-07-29T08:48:48;10.02;;;3.22;;
26981;SDS011;14533;50.848;4.380;2022-07-29T08:51:14;9.05;;;3.33;;
26981;SDS011;14533;50.848;4.380;2022-07-29T08:53:42;8.68;;;2.90;;
26981;SDS011;14533;50.848;4.380;2022-07-29T08:56:12;8.98;;;3.00;;
26981;SDS011;14533;50.848;4.380;2022-07-29T08:58:38;7.80;;;2.72;;
26981;SDS011;14533;50.848;4.380;2022-07-29T09:01:05;7.15;;;3.10;;
26981;SDS011;14533;50.848;4.380;2022-07-29T09:03:32;5.15;;;3.22;;
26981;SDS011;14533;50.848;4.380;2022-07-29T09:06:01;5.55;;;4.07;;
26981;SDS011;14533;50.848;4.380;2022-07-29T09:08:27;9.02;;;2.72;;
26981;SDS011;14533;50.848;4.380;2022-07-29T09:10:53;5.53;;;2.95;;
26981;SDS011;14533;50.848;4.380;2022-07-29T09:13:21;7.03;;;2.50;;
26981;SDS011;14533;50.848;4.380;2022-07-29T09:15:47;4.18;;;2.95;;
26981;SDS011;14533;50.848;4.380;2022-07-29T09:18:59;2.92;;;2.13;;
26981;SDS011;14533;50.848;4.380;2022-07-29T09:21:00;6.45;;;2.70;;
26981;SDS011;14533;50.848;4.380;2022-07-29T09:24:00;10.95;;;2.58;;
26981;SDS011;14533;50.848;4.380;2022-07-29T09:26:32;9.18;;;2.25;;
26981;SDS011;14533;50.848;4.380;2022-07-29T09:31:36;6.82;;;2.53;;
26981;SDS011;14533;50.848;4.380;2022-07-29T09:34:03;7.40;;;2.58;;
26981;SDS011;14533;50.848;4.380;2022-07-29T09:36:29;6.70;;;2.80;;
26981;SDS011;14533;50.848;4.380;2022-07-29T09:38:58;10.45;;;2.92;;
26981;SDS011;14533;50.848;4.380;2022-07-29T09:41:25;3.88;;;2.20;;
26981;SDS011;14533;50.848;4.380;2022-07-29T09:43:56;8.68;;;2.95;;
26981;SDS011;14533;50.848;4.380;2022-07-29T09:46:23;6.20;;;2.85;;
26981;SDS011;14533;50.848;4.380;2022-07-29T09:51:34;10.75;;;3.90;;
26981;SDS011;14533;50.848;4.380;2022-07-29T09:54:00;8.45;;;2.97;;
26981;SDS011;14533;50.848;4.380;2022-07-29T09:56:41;7.40;;;3.47;;
26981;SDS011;14533;50.848;4.380;2022-07-29T09:59:08;7.22;;;2.83;;
26981;SDS011;14533;50.848;4.380;2022-07-29T10:01:34;7.10;;;2.72;;
26981;SDS011;14533;50.848;4.380;2022-07-29T10:04:00;5.75;;;3.42;;
26981;SDS011;14533;50.848;4.380;2022-07-29T10:06:27;6.20;;;3.08;;
26981;SDS011;14533;50.848;4.380;2022-07-29T10:08:53;10.52;;;3.05;;
26981;SDS011;14533;50.848;4.380;2022-07-29T10:11:19;7.70;;;3.15;;
26981;SDS011;14533;50.848;4.380;2022-07-29T10:13:46;7.65;;;2.38;;
26981;SDS011;14533;50.848;4.380;2022-07-29T10:16:13;4.00;;;2.30;;
26981;SDS011;14533;50.848;4.380;2022-07-29T10:18:41;4.30;;;1.90;;
26981;SDS011;14533;50.848;4.380;2022-07-29T10:21:08;7.78;;;2.22;;
26981;SDS011;14533;50.848;4.380;2022-07-29T10:23:35;10.20;;;3.30;;
26981;SDS011;14533;50.848;4.380;2022-07-29T10:26:02;6.10;;;2.15;;
26981;SDS011;14533;50.848;4.380;2022-07-29T10:28:29;8.90;;;2.90;;
26981;SDS011;14533;50.848;4.380;2022-07-29T10:30:58;5.75;;;2.30;;
26981;SDS011;14533;50.848;4.380;2022-07-29T10:36:24;8.50;;;2.47;;
26981;SDS011;14533;50.848;4.380;2022-07-29T10:44:17;5.00;;;2.45;;
26981;SDS011;14533;50.848;4.380;2022-07-29T10:46:45;5.65;;;2.83;;
26981;SDS011;14533;50.848;4.380;2022-07-29T10:49:44;6.55;;;2.10;;
26981;SDS011;14533;50.848;4.380;2022-07-29T10:52:19;5.03;;;2.13;;
26981;SDS011;14533;50.848;4.380;2022-07-29T10:54:48;9.45;;;2.53;;
26981;SDS011;14533;50.848;4.380;2022-07-29T10:59:52;5.72;;;2.40;;
26981;SDS011;14533;50.848;4.380;2022-07-29T11:05:05;4.63;;;2.30;;
26981;SDS011;14533;50.848;4.380;2022-07-29T11:07:32;9.95;;;2.47;;
26981;SDS011;14533;50.848;4.380;2022-07-29T11:15:08;7.57;;;2.53;;
26981;SDS011;14533;50.848;4.380;2022-07-29T11:20:39;6.65;;;2.25;;
26981;SDS011;14533;50.848;4.380;2022-07-29T11:23:22;7.60;;;3.45;;
26981;SDS011;14533;50.848;4.380;2022-07-29T11:26:12;6.38;;;3.67;;
26981;SDS011;14533;50.848;4.380;2022-07-29T11:31:16;22.48;;;11.63;;
26981;SDS011;14533;50.848;4.380;2022-07-29T11:33:56;76.10;;;39.97;;
26981;SDS011;14533;50.848;4.380;2022-07-29T11:36:22;67.22;;;37.08;;
26981;SDS011;14533;50.848;4.380;2022-07-29T11:38:48;31.50;;;16.02;;
26981;SDS011;14533;50.848;4.380;2022-07-29T11:43:50;14.18;;;5.13;;
26981;SDS011;14533;50.848;4.380;2022-07-29T11:49:23;12.77;;;4.07;;
26981;SDS011;14533;50.848;4.380;2022-07-29T11:51:53;8.02;;;3.40;;
26981;SDS011;14533;50.848;4.380;2022-07-29T11:54:26;6.97;;;3.90;;
26981;SDS011;14533;50.848;4.380;2022-07-29T11:56:59;10.27;;;3.65;;
26981;SDS011;14533;50.848;4.380;2022-07-29T11:59:25;11.02;;;4.68;;
26981;SDS011;14533;50.848;4.380;2022-07-29T12:01:58;9.35;;;4.47;;
26981;SDS011;14533;50.848;4.380;2022-07-29T12:04:25;12.60;;;4.43;;
26981;SDS011;14533;50.848;4.380;2022-07-29T12:06:52;10.88;;;4.63;;
26981;SDS011;14533;50.848;4.380;2022-07-29T12:09:18;6.10;;;2.97;;
26981;SDS011;14533;50.848;4.380;2022-07-29T12:11:45;6.47;;;3.15;;
26981;SDS011;14533;50.848;4.380;2022-07-29T12:14:27;11.00;;;3.60;;
26981;SDS011;14533;50.848;4.380;2022-07-29T12:16:54;7.68;;;3.38;;
26981;SDS011;14533;50.848;4.380;2022-07-29T12:19:20;11.30;;;3.28;;
26981;SDS011;14533;50.848;4.380;2022-07-29T12:21:46;9.68;;;3.10;;
26981;SDS011;14533;50.848;4.380;2022-07-29T12:24:13;7.72;;;3.55;;
26981;SDS011;14533;50.848;4.380;2022-07-29T12:26:49;8.60;;;3.38;;
26981;SDS011;14533;50.848;4.380;2022-07-29T12:29:19;7.53;;;3.87;;
26981;SDS011;14533;50.848;4.380;2022-07-29T12:31:45;10.23;;;3.80;;
26981;SDS011;14533;50.848;4.380;2022-07-29T12:34:15;5.75;;;3.38;;
26981;SDS011;14533;50.848;4.380;2022-07-29T12:36:41;8.98;;;3.22;;
26981;SDS011;14533;50.848;4.380;2022-07-29T12:39:08;8.98;;;3.45;;
26981;SDS011;14533;50.848;4.380;2022-07-29T12:41:34;7.05;;;4.43;;
26981;SDS011;14533;50.848;4.380;2022-07-29T12:44:00;10.38;;;3.20;;
26981;SDS011;14533;50.848;4.380;2022-07-29T12:46:26;8.40;;;3.83;;
26981;SDS011;14533;50.848;4.380;2022-07-29T12:48:52;9.35;;;4.10;;
26981;SDS011;14533;50.848;4.380;2022-07-29T12:51:35;5.47;;;2.97;;
26981;SDS011;14533;50.848;4.380;2022-07-29T12:56:28;33.83;;;6.93;;
26981;SDS011;14533;50.848;4.380;2022-07-29T12:58:54;58.70;;;14.02;;
26981;SDS011;14533;50.848;4.380;2022-07-29T13:01:20;7.32;;;4.22;;
26981;SDS011;14533;50.848;4.380;2022-07-29T13:09:03;10.23;;;4.38;;
26981;SDS011;14533;50.848;4.380;2022-07-29T13:11:40;8.70;;;3.75;;
26981;SDS011;14533;50.848;4.380;2022-07-29T13:14:41;9.52;;;3.33;;
26981;SDS011;14533;50.848;4.380;2022-07-29T13:17:06;6.55;;;2.85;;
26981;SDS011;14533;50.848;4.380;2022-07-29T13:22:03;10.15;;;3.25;;
26981;SDS011;14533;50.848;4.380;2022-07-29T13:24:29;10.40;;;3.08;;
26981;SDS011;14533;50.848;4.380;2022-07-29T13:26:55;6.90;;;2.30;;
26981;SDS011;14533;50.848;4.380;2022-07-29T13:29:20;7.88;;;2.90;;
26981;SDS011;14533;50.848;4.380;2022-07-29T13:31:46;18.10;;;10.45;;
26981;SDS011;14533;50.848;4.380;2022-07-29T13:34:11;9.80;;;5.75;;
26981;SDS011;14533;50.848;4.380;2022-07-29T13:36:37;5.32;;;2.45;;
26981;SDS011;14533;50.848;4.380;2022-07-29T13:39:03;6.65;;;3.25;;
26981;SDS011;14533;50.848;4.380;2022-07-29T13:41:28;5.88;;;2.75;;
26981;SDS011;14533;50.848;4.380;2022-07-29T13:43:54;10.18;;;2.92;;
26981;SDS011;14533;50.848;4.380;2022-07-29T13:46:20;5.90;;;2.90;;
26981;SDS011;14533;50.848;4.380;2022-07-29T13:48:46;18.08;;;3.80;;
26981;SDS011;14533;50.848;4.380;2022-07-29T13:51:11;29.08;;;4.57;;
26981;SDS011;14533;50.848;4.380;2022-07-29T13:53:37;9.80;;;2.47;;
26981;SDS011;14533;50.848;4.380;2022-07-29T13:56:03;18.40;;;2.95;;
26981;SDS011;14533;50.848;4.380;2022-07-29T13:58:30;10.57;;;3.45;;
26981;SDS011;14533;50.848;4.380;2022-07-29T14:00:57;10.45;;;2.67;;
26981;SDS011;14533;50.848;4.380;2022-07-29T14:03:23;12.93;;;3.17;;
26981;SDS011;14533;50.848;4.380;2022-07-29T14:05:49;7.97;;;2.70;;
26981;SDS011;14533;50.848;4.380;2022-07-29T14:08:15;11.15;;;2.95;;
26981;SDS011;14533;50.848;4.380;2022-07-29T14:10:40;9.80;;;2.58;;
26981;SDS011;14533;50.848;4.380;2022-07-29T14:13:06;10.98;;;2.30;;
26981;SDS011;14533;50.848;4.380;2022-07-29T14:15:31;4.65;;;1.92;;
26981;SDS011;14533;50.848;4.380;2022-07-29T14:17:57;4.68;;;1.85;;
26981;SDS011;14533;50.848;4.380;2022-07-29T14:20:23;4.70;;;2.00;;
26981;SDS011;14533;50.848;4.380;2022-07-29T14:22:48;6.57;;;2.35;;
26981;SDS011;14533;50.848;4.380;2022-07-29T14:25:14;7.63;;;2.60;;
26981;SDS011;14533;50.848;4.380;2022-07-29T14:27:39;28.10;;;4.40;;
26981;SDS011;14533;50.848;4.380;2022-07-29T14:30:05;9.02;;;2.85;;
26981;SDS011;14533;50.848;4.380;2022-07-29T14:32:31;7.13;;;2.15;;
26981;SDS011;14533;50.848;4.380;2022-07-29T14:34:57;5.75;;;2.70;;
26981;SDS011;14533;50.848;4.380;2022-07-29T14:37:22;4.65;;;2.45;;
26981;SDS011;14533;50.848;4.380;2022-07-29T14:39:48;45.65;;;7.07;;
26981;SDS011;14533;50.848;4.380;2022-07-29T14:42:13;19.20;;;3.92;;
26981;SDS011;14533;50.848;4.380;2022-07-29T14:44:39;4.88;;;2.40;;
26981;SDS011;14533;50.848;4.380;2022-07-29T14:47:06;8.73;;;2.33;;
26981;SDS011;14533;50.848;4.380;2022-07-29T14:49:31;6.43;;;2.38;;
26981;SDS011;14533;50.848;4.380;2022-07-29T14:51:57;4.10;;;2.10;;
26981;SDS011;14533;50.848;4.380;2022-07-29T14:54:22;10.68;;;3.10;;
26981;SDS011;14533;50.848;4.380;2022-07-29T14:56:48;6.15;;;2.60;;
26981;SDS011;14533;50.848;4.380;2022-07-29T14:59:15;5.07;;;2.45;;
26981;SDS011;14533;50.848;4.380;2022-07-29T15:01:41;4.78;;;3.22;;
26981;SDS011;14533;50.848;4.380;2022-07-29T15:04:07;4.00;;;2.35;;
26981;SDS011;14533;50.848;4.380;2022-07-29T15:06:33;18.20;;;3.13;;
26981;SDS011;14533;50.848;4.380;2022-07-29T15:08:59;16.92;;;3.30;;
26981;SDS011;14533;50.848;4.380;2022-07-29T15:11:24;11.25;;;2.53;;
26981;SDS011;14533;50.848;4.380;2022-07-29T15:13:50;10.98;;;2.97;;
26981;SDS011;14533;50.848;4.380;2022-07-29T15:16:16;6.43;;;2.88;;
26981;SDS011;14533;50.848;4.380;2022-07-29T15:18:41;9.15;;;3.20;;
26981;SDS011;14533;50.848;4.380;2022-07-29T15:21:07;11.68;;;3.15;;
26981;SDS011;14533;50.848;4.380;2022-07-29T15:23:33;5.63;;;2.45;;
26981;SDS011;14533;50.848;4.380;2022-07-29T15:26:01;10.98;;;2.40;;
26981;SDS011;14533;50.848;4.380;2022-07-29T15:28:27;9.25;;;2.60;;
26981;SDS011;14533;50.848;4.380;2022-07-29T15:30:53;16.95;;;3.00;;
26981;SDS011;14533;50.848;4.380;2022-07-29T15:33:19;11.60;;;3.00;;
26981;SDS011;14533;50.848;4.380;2022-07-29T15:35:45;8.15;;;2.30;;
26981;SDS011;14533;50.848;4.380;2022-07-29T15:38:10;6.35;;;2.92;;
26981;SDS011;14533;50.848;4.380;2022-07-29T15:40:36;6.38;;;2.83;;